sensor_id;sensor_type;location;lat;lon;timestamp;temperature;humidity
78448;SHT31;67742;51.972;5.682;2024-01-30T00:02:22;11.2;66.8
78448;SHT31;67742;51.972;5.682;2024-01-30T00:04:52;11.2;66.7
78448;SHT31;67742;51.972;5.682;2024-01-30T00:07:20;11.2;66.5
78448;SHT31;67742;51.972;5.682;2024-01-30T00:09:48;11.2;66.8
78448;SHT31;67742;51.972;5.682;2024-01-30T00:12:17;11.2;66.8
78448;SHT31;67742;51.972;5.682;2024-01-30T00:14:47;11.1;67.0
78448;SHT31;67742;51.972;5.682;2024-01-30T00:17:16;11.1;67.0
78448;SHT31;67742;51.972;5.682;2024-01-30T00:19:45;11.1;66.8
78448;SHT31;67742;51.972;5.682;2024-01-30T00:22:14;11.1;66.7
78448;SHT31;67742;51.972;5.682;2024-01-30T00:24:43;11.1;67.1
78448;SHT31;67742;51.972;5.682;2024-01-30T00:27:11;11.1;66.8
78448;SHT31;67742;51.972;5.682;2024-01-30T00:29:39;11.0;66.6
78448;SHT31;67742;51.972;5.682;2024-01-30T00:32:08;11.0;66.9
78448;SHT31;67742;51.972;5.682;2024-01-30T00:34:37;11.0;66.8
78448;SHT31;67742;51.972;5.682;2024-01-30T00:37:07;11.0;67.1
78448;SHT31;67742;51.972;5.682;2024-01-30T00:39:36;11.0;67.2
78448;SHT31;67742;51.972;5.682;2024-01-30T00:42:05;11.0;66.9
78448;SHT31;67742;51.972;5.682;2024-01-30T00:44:34;10.9;66.9
78448;SHT31;67742;51.972;5.682;2024-01-30T00:47:03;10.9;66.5
78448;SHT31;67742;51.972;5.682;2024-01-30T00:49:33;10.9;66.9
78448;SHT31;67742;51.972;5.682;2024-01-30T00:52:01;10.9;66.6
78448;SHT31;67742;51.972;5.682;2024-01-30T00:54:30;10.9;67.1
78448;SHT31;67742;51.972;5.682;2024-01-30T00:56:58;10.9;67.3
78448;SHT31;67742;51.972;5.682;2024-01-30T00:59:27;10.9;67.2
78448;SHT31;67742;51.972;5.682;2024-01-30T01:01:55;10.9;67.0
78448;SHT31;67742;51.972;5.682;2024-01-30T01:04:23;10.9;66.9
78448;SHT31;67742;51.972;5.682;2024-01-30T01:06:53;10.8;66.9
78448;SHT31;67742;51.972;5.682;2024-01-30T01:09:21;10.8;67.2
78448;SHT31;67742;51.972;5.682;2024-01-30T01:11:50;10.8;66.8
78448;SHT31;67742;51.972;5.682;2024-01-30T01:14:18;10.8;66.8
78448;SHT31;67742;51.972;5.682;2024-01-30T01:16:46;10.8;66.8
78448;SHT31;67742;51.972;5.682;2024-01-30T01:19:15;10.8;67.3
78448;SHT31;67742;51.972;5.682;2024-01-30T01:21:43;10.7;67.4
78448;SHT31;67742;51.972;5.682;2024-01-30T01:24:12;10.7;67.6
78448;SHT31;67742;51.972;5.682;2024-01-30T01:26:42;10.7;67.2
78448;SHT31;67742;51.972;5.682;2024-01-30T01:29:13;10.7;66.9
78448;SHT31;67742;51.972;5.682;2024-01-30T01:31:42;10.7;66.8
78448;SHT31;67742;51.972;5.682;2024-01-30T01:34:13;10.7;66.8
78448;SHT31;67742;51.972;5.682;2024-01-30T01:36:43;10.7;67.0
78448;SHT31;67742;51.972;5.682;2024-01-30T01:39:12;10.7;66.7
78448;SHT31;67742;51.972;5.682;2024-01-30T01:41:40;10.7;67.1
78448;SHT31;67742;51.972;5.682;2024-01-30T01:44:09;10.6;67.1
78448;SHT31;67742;51.972;5.682;2024-01-30T01:46:37;10.6;67.1
78448;SHT31;67742;51.972;5.682;2024-01-30T01:49:07;10.6;66.7
78448;SHT31;67742;51.972;5.682;2024-01-30T01:51:37;10.6;66.9
78448;SHT31;67742;51.972;5.682;2024-01-30T01:54:08;10.6;66.9
78448;SHT31;67742;51.972;5.682;2024-01-30T01:56:37;10.6;66.8
78448;SHT31;67742;51.972;5.682;2024-01-30T01:59:07;10.6;67.0
78448;SHT31;67742;51.972;5.682;2024-01-30T02:01:37;10.5;67.1
78448;SHT31;67742;51.972;5.682;2024-01-30T02:04:07;10.6;67.1
78448;SHT31;67742;51.972;5.682;2024-01-30T02:06:36;10.5;67.3
78448;SHT31;67742;51.972;5.682;2024-01-30T02:09:08;10.5;67.1
78448;SHT31;67742;51.972;5.682;2024-01-30T02:11:39;10.5;67.1
78448;SHT31;67742;51.972;5.682;2024-01-30T02:14:07;10.5;67.2
78448;SHT31;67742;51.972;5.682;2024-01-30T02:16:36;10.5;67.1
78448;SHT31;67742;51.972;5.682;2024-01-30T02:19:05;10.5;66.9
78448;SHT31;67742;51.972;5.682;2024-01-30T02:21:34;10.5;66.9
78448;SHT31;67742;51.972;5.682;2024-01-30T02:24:04;10.5;67.1
78448;SHT31;67742;51.972;5.682;2024-01-30T02:26:33;10.5;67.0
78448;SHT31;67742;51.972;5.682;2024-01-30T02:29:01;10.4;67.1
78448;SHT31;67742;51.972;5.682;2024-01-30T02:31:29;10.4;67.2
78448;SHT31;67742;51.972;5.682;2024-01-30T02:33:58;10.4;67.1
78448;SHT31;67742;51.972;5.682;2024-01-30T02:36:26;10.4;67.2
78448;SHT31;67742;51.972;5.682;2024-01-30T02:38:55;10.4;67.1
78448;SHT31;67742;51.972;5.682;2024-01-30T02:41:23;10.4;67.3
78448;SHT31;67742;51.972;5.682;2024-01-30T02:43:51;10.4;67.1
78448;SHT31;67742;51.972;5.682;2024-01-30T02:46:20;10.4;67.2
78448;SHT31;67742;51.972;5.682;2024-01-30T02:48:48;10.4;67.3
78448;SHT31;67742;51.972;5.682;2024-01-30T02:51:17;10.4;67.4
78448;SHT31;67742;51.972;5.682;2024-01-30T02:53:45;10.4;67.4
78448;SHT31;67742;51.972;5.682;2024-01-30T02:56:14;10.4;67.4
78448;SHT31;67742;51.972;5.682;2024-01-30T02:58:43;10.4;67.2
78448;SHT31;67742;51.972;5.682;2024-01-30T03:01:11;10.4;67.3
78448;SHT31;67742;51.972;5.682;2024-01-30T03:03:39;10.4;67.3
78448;SHT31;67742;51.972;5.682;2024-01-30T03:06:09;10.4;67.3
78448;SHT31;67742;51.972;5.682;2024-01-30T03:08:39;10.4;67.3
78448;SHT31;67742;51.972;5.682;2024-01-30T03:11:08;10.4;67.2
78448;SHT31;67742;51.972;5.682;2024-01-30T03:13:36;10.4;67.1
78448;SHT31;67742;51.972;5.682;2024-01-30T03:16:06;10.4;66.9
78448;SHT31;67742;51.972;5.682;2024-01-30T03:18:35;10.4;66.9
78448;SHT31;67742;51.972;5.682;2024-01-30T03:21:03;10.4;66.9
78448;SHT31;67742;51.972;5.682;2024-01-30T03:23:32;10.4;67.0
78448;SHT31;67742;51.972;5.682;2024-01-30T03:26:03;10.4;67.0
78448;SHT31;67742;51.972;5.682;2024-01-30T03:28:33;10.4;67.1
78448;SHT31;67742;51.972;5.682;2024-01-30T03:31:01;10.4;67.2
78448;SHT31;67742;51.972;5.682;2024-01-30T03:33:30;10.4;67.0
78448;SHT31;67742;51.972;5.682;2024-01-30T03:36:02;10.4;67.0
78448;SHT31;67742;51.972;5.682;2024-01-30T03:38:31;10.3;67.2
78448;SHT31;67742;51.972;5.682;2024-01-30T03:41:01;10.3;67.2
78448;SHT31;67742;51.972;5.682;2024-01-30T03:43:29;10.3;67.3
78448;SHT31;67742;51.972;5.682;2024-01-30T03:45:58;10.3;67.1
78448;SHT31;67742;51.972;5.682;2024-01-30T03:48:28;10.3;67.2
78448;SHT31;67742;51.972;5.682;2024-01-30T03:50:56;10.3;67.1
78448;SHT31;67742;51.972;5.682;2024-01-30T03:53:27;10.3;67.2
78448;SHT31;67742;51.972;5.682;2024-01-30T03:55:55;10.3;67.1
78448;SHT31;67742;51.972;5.682;2024-01-30T03:58:24;10.3;67.0
78448;SHT31;67742;51.972;5.682;2024-01-30T04:00:52;10.3;67.0
78448;SHT31;67742;51.972;5.682;2024-01-30T04:03:21;10.3;66.9
78448;SHT31;67742;51.972;5.682;2024-01-30T04:05:49;10.3;67.2
78448;SHT31;67742;51.972;5.682;2024-01-30T04:08:18;10.3;67.3
78448;SHT31;67742;51.972;5.682;2024-01-30T04:10:47;10.3;67.3
78448;SHT31;67742;51.972;5.682;2024-01-30T04:13:15;10.3;67.2
78448;SHT31;67742;51.972;5.682;2024-01-30T04:15:44;10.3;67.2
78448;SHT31;67742;51.972;5.682;2024-01-30T04:18:15;10.3;67.2
78448;SHT31;67742;51.972;5.682;2024-01-30T04:20:47;10.3;67.4
78448;SHT31;67742;51.972;5.682;2024-01-30T04:23:15;10.3;67.2
78448;SHT31;67742;51.972;5.682;2024-01-30T04:25:44;10.3;67.3
78448;SHT31;67742;51.972;5.682;2024-01-30T04:28:13;10.4;67.2
78448;SHT31;67742;51.972;5.682;2024-01-30T04:30:44;10.4;67.2
78448;SHT31;67742;51.972;5.682;2024-01-30T04:33:12;10.4;67.2
78448;SHT31;67742;51.972;5.682;2024-01-30T04:35:41;10.4;67.4
78448;SHT31;67742;51.972;5.682;2024-01-30T04:38:09;10.4;67.3
78448;SHT31;67742;51.972;5.682;2024-01-30T04:40:37;10.4;67.4
78448;SHT31;67742;51.972;5.682;2024-01-30T04:43:06;10.4;67.3
78448;SHT31;67742;51.972;5.682;2024-01-30T04:45:34;10.4;67.3
78448;SHT31;67742;51.972;5.682;2024-01-30T04:48:03;10.4;67.4
78448;SHT31;67742;51.972;5.682;2024-01-30T04:50:32;10.4;67.6
78448;SHT31;67742;51.972;5.682;2024-01-30T04:53:02;10.4;67.4
78448;SHT31;67742;51.972;5.682;2024-01-30T04:55:34;10.4;67.3
78448;SHT31;67742;51.972;5.682;2024-01-30T04:58:04;10.4;67.3
78448;SHT31;67742;51.972;5.682;2024-01-30T05:00:32;10.4;67.3
78448;SHT31;67742;51.972;5.682;2024-01-30T05:03:01;10.4;67.3
78448;SHT31;67742;51.972;5.682;2024-01-30T05:05:30;10.4;67.6
78448;SHT31;67742;51.972;5.682;2024-01-30T05:08:00;10.4;67.6
78448;SHT31;67742;51.972;5.682;2024-01-30T05:10:29;10.4;67.7
78448;SHT31;67742;51.972;5.682;2024-01-30T05:12:57;10.4;67.6
78448;SHT31;67742;51.972;5.682;2024-01-30T05:15:26;10.4;67.6
78448;SHT31;67742;51.972;5.682;2024-01-30T05:17:54;10.4;67.8
78448;SHT31;67742;51.972;5.682;2024-01-30T05:20:23;10.4;67.8
78448;SHT31;67742;51.972;5.682;2024-01-30T05:22:54;10.4;67.7
78448;SHT31;67742;51.972;5.682;2024-01-30T05:25:23;10.4;67.8
78448;SHT31;67742;51.972;5.682;2024-01-30T05:27:51;10.5;67.8
78448;SHT31;67742;51.972;5.682;2024-01-30T05:30:23;10.5;67.7
78448;SHT31;67742;51.972;5.682;2024-01-30T05:32:52;10.5;67.7
78448;SHT31;67742;51.972;5.682;2024-01-30T05:35:20;10.5;67.7
78448;SHT31;67742;51.972;5.682;2024-01-30T05:37:49;10.5;67.5
78448;SHT31;67742;51.972;5.682;2024-01-30T05:40:19;10.5;67.7
78448;SHT31;67742;51.972;5.682;2024-01-30T05:42:47;10.5;67.9
78448;SHT31;67742;51.972;5.682;2024-01-30T05:45:16;10.5;68.0
78448;SHT31;67742;51.972;5.682;2024-01-30T05:47:45;10.5;67.9
78448;SHT31;67742;51.972;5.682;2024-01-30T05:50:15;10.6;67.8
78448;SHT31;67742;51.972;5.682;2024-01-30T05:52:44;10.6;67.9
78448;SHT31;67742;51.972;5.682;2024-01-30T05:55:13;10.6;68.0
78448;SHT31;67742;51.972;5.682;2024-01-30T05:57:41;10.6;68.1
78448;SHT31;67742;51.972;5.682;2024-01-30T06:00:11;10.6;68.0
78448;SHT31;67742;51.972;5.682;2024-01-30T06:02:40;10.6;68.1
78448;SHT31;67742;51.972;5.682;2024-01-30T06:05:09;10.6;68.2
78448;SHT31;67742;51.972;5.682;2024-01-30T06:07:37;10.6;68.2
78448;SHT31;67742;51.972;5.682;2024-01-30T06:10:07;10.6;68.1
78448;SHT31;67742;51.972;5.682;2024-01-30T06:12:37;10.6;68.2
78448;SHT31;67742;51.972;5.682;2024-01-30T06:15:07;10.6;68.3
78448;SHT31;67742;51.972;5.682;2024-01-30T06:17:36;10.7;68.1
78448;SHT31;67742;51.972;5.682;2024-01-30T06:20:06;10.7;68.3
78448;SHT31;67742;51.972;5.682;2024-01-30T06:22:35;10.7;68.3
78448;SHT31;67742;51.972;5.682;2024-01-30T06:25:04;10.7;68.2
78448;SHT31;67742;51.972;5.682;2024-01-30T06:27:32;10.7;68.2
78448;SHT31;67742;51.972;5.682;2024-01-30T06:30:01;10.7;68.2
78448;SHT31;67742;51.972;5.682;2024-01-30T06:32:30;10.8;68.3
78448;SHT31;67742;51.972;5.682;2024-01-30T06:35:00;10.8;68.2
78448;SHT31;67742;51.972;5.682;2024-01-30T06:37:29;10.8;68.2
78448;SHT31;67742;51.972;5.682;2024-01-30T06:39:57;10.8;68.2
78448;SHT31;67742;51.972;5.682;2024-01-30T06:42:26;10.8;68.2
78448;SHT31;67742;51.972;5.682;2024-01-30T06:44:54;10.8;68.2
78448;SHT31;67742;51.972;5.682;2024-01-30T06:47:22;10.8;68.2
78448;SHT31;67742;51.972;5.682;2024-01-30T06:49:51;10.8;68.2
78448;SHT31;67742;51.972;5.682;2024-01-30T06:52:20;10.8;68.2
78448;SHT31;67742;51.972;5.682;2024-01-30T06:54:48;10.9;68.1
78448;SHT31;67742;51.972;5.682;2024-01-30T06:57:16;10.9;68.3
78448;SHT31;67742;51.972;5.682;2024-01-30T06:59:45;10.9;68.3
78448;SHT31;67742;51.972;5.682;2024-01-30T07:02:15;10.9;68.2
78448;SHT31;67742;51.972;5.682;2024-01-30T07:04:43;10.9;68.1
78448;SHT31;67742;51.972;5.682;2024-01-30T07:07:12;10.9;68.0
78448;SHT31;67742;51.972;5.682;2024-01-30T07:09:41;10.9;68.1
78448;SHT31;67742;51.972;5.682;2024-01-30T07:12:09;10.9;68.2
78448;SHT31;67742;51.972;5.682;2024-01-30T07:14:38;10.9;68.3
78448;SHT31;67742;51.972;5.682;2024-01-30T07:17:06;10.9;68.2
78448;SHT31;67742;51.972;5.682;2024-01-30T07:19:35;10.9;68.3
78448;SHT31;67742;51.972;5.682;2024-01-30T07:22:04;10.9;68.4
78448;SHT31;67742;51.972;5.682;2024-01-30T07:24:32;10.9;68.4
78448;SHT31;67742;51.972;5.682;2024-01-30T07:27:02;10.9;68.3
78448;SHT31;67742;51.972;5.682;2024-01-30T07:29:31;11.0;68.3
78448;SHT31;67742;51.972;5.682;2024-01-30T07:31:59;11.0;68.5
78448;SHT31;67742;51.972;5.682;2024-01-30T07:34:27;11.0;68.5
78448;SHT31;67742;51.972;5.682;2024-01-30T07:36:56;11.0;68.4
78448;SHT31;67742;51.972;5.682;2024-01-30T07:39:25;11.0;68.5
78448;SHT31;67742;51.972;5.682;2024-01-30T07:41:53;11.0;68.4
78448;SHT31;67742;51.972;5.682;2024-01-30T07:44:22;11.0;68.5
78448;SHT31;67742;51.972;5.682;2024-01-30T07:46:51;11.0;68.5
78448;SHT31;67742;51.972;5.682;2024-01-30T07:49:19;11.0;68.8
78448;SHT31;67742;51.972;5.682;2024-01-30T07:51:48;11.0;68.8
78448;SHT31;67742;51.972;5.682;2024-01-30T07:54:16;11.0;68.9
78448;SHT31;67742;51.972;5.682;2024-01-30T07:56:45;11.1;68.9
78448;SHT31;67742;51.972;5.682;2024-01-30T07:59:14;11.1;68.9
78448;SHT31;67742;51.972;5.682;2024-01-30T08:02:15;11.1;69.0
78448;SHT31;67742;51.972;5.682;2024-01-30T08:04:43;11.1;69.1
78448;SHT31;67742;51.972;5.682;2024-01-30T08:07:15;11.1;69.2
78448;SHT31;67742;51.972;5.682;2024-01-30T08:09:45;11.1;69.3
78448;SHT31;67742;51.972;5.682;2024-01-30T08:12:14;11.1;69.5
78448;SHT31;67742;51.972;5.682;2024-01-30T08:14:43;11.1;69.4
78448;SHT31;67742;51.972;5.682;2024-01-30T08:17:11;11.1;69.5
78448;SHT31;67742;51.972;5.682;2024-01-30T08:19:40;11.2;69.6
78448;SHT31;67742;51.972;5.682;2024-01-30T08:22:08;11.2;69.6
78448;SHT31;67742;51.972;5.682;2024-01-30T08:24:37;11.2;69.8
78448;SHT31;67742;51.972;5.682;2024-01-30T08:27:08;11.2;69.9
78448;SHT31;67742;51.972;5.682;2024-01-30T08:29:38;11.3;70.0
78448;SHT31;67742;51.972;5.682;2024-01-30T08:32:08;11.3;69.9
78448;SHT31;67742;51.972;5.682;2024-01-30T08:34:36;11.3;70.0
78448;SHT31;67742;51.972;5.682;2024-01-30T08:37:05;11.3;70.1
78448;SHT31;67742;51.972;5.682;2024-01-30T08:39:34;11.4;70.1
78448;SHT31;67742;51.972;5.682;2024-01-30T08:42:03;11.4;70.3
78448;SHT31;67742;51.972;5.682;2024-01-30T08:44:32;11.4;70.1
78448;SHT31;67742;51.972;5.682;2024-01-30T08:47:00;11.5;70.1
78448;SHT31;67742;51.972;5.682;2024-01-30T08:49:31;11.5;70.1
78448;SHT31;67742;51.972;5.682;2024-01-30T08:52:00;11.5;70.0
78448;SHT31;67742;51.972;5.682;2024-01-30T08:54:31;11.6;70.0
78448;SHT31;67742;51.972;5.682;2024-01-30T08:57:01;11.6;69.9
78448;SHT31;67742;51.972;5.682;2024-01-30T08:59:30;11.6;69.9
78448;SHT31;67742;51.972;5.682;2024-01-30T09:02:00;11.7;69.8
78448;SHT31;67742;51.972;5.682;2024-01-30T09:04:30;11.7;69.9
78448;SHT31;67742;51.972;5.682;2024-01-30T09:06:58;11.7;69.9
78448;SHT31;67742;51.972;5.682;2024-01-30T09:09:26;11.8;69.9
78448;SHT31;67742;51.972;5.682;2024-01-30T09:11:55;11.8;69.9
78448;SHT31;67742;51.972;5.682;2024-01-30T09:14:28;11.8;70.0
78448;SHT31;67742;51.972;5.682;2024-01-30T09:16:57;11.9;69.9
78448;SHT31;67742;51.972;5.682;2024-01-30T09:19:25;11.9;70.0
78448;SHT31;67742;51.972;5.682;2024-01-30T09:21:54;11.9;69.9
78448;SHT31;67742;51.972;5.682;2024-01-30T09:24:23;12.0;70.0
78448;SHT31;67742;51.972;5.682;2024-01-30T09:26:52;12.0;69.9
78448;SHT31;67742;51.972;5.682;2024-01-30T09:29:21;12.0;69.8
78448;SHT31;67742;51.972;5.682;2024-01-30T09:31:49;12.1;69.9
78448;SHT31;67742;51.972;5.682;2024-01-30T09:34:18;12.1;69.9
78448;SHT31;67742;51.972;5.682;2024-01-30T09:36:47;12.1;70.0
78448;SHT31;67742;51.972;5.682;2024-01-30T09:39:15;12.1;70.2
78448;SHT31;67742;51.972;5.682;2024-01-30T09:41:49;12.2;70.1
78448;SHT31;67742;51.972;5.682;2024-01-30T09:44:23;12.2;70.2
78448;SHT31;67742;51.972;5.682;2024-01-30T09:46:53;12.2;70.2
78448;SHT31;67742;51.972;5.682;2024-01-30T09:49:22;12.2;70.4
78448;SHT31;67742;51.972;5.682;2024-01-30T09:51:53;12.3;70.4
78448;SHT31;67742;51.972;5.682;2024-01-30T09:54:25;12.3;70.5
78448;SHT31;67742;51.972;5.682;2024-01-30T09:56:53;12.3;70.5
78448;SHT31;67742;51.972;5.682;2024-01-30T09:59:22;12.4;70.4
78448;SHT31;67742;51.972;5.682;2024-01-30T10:01:51;12.4;70.3
78448;SHT31;67742;51.972;5.682;2024-01-30T10:04:20;12.4;70.1
78448;SHT31;67742;51.972;5.682;2024-01-30T10:06:49;12.5;70.0
78448;SHT31;67742;51.972;5.682;2024-01-30T10:09:19;12.5;70.0
78448;SHT31;67742;51.972;5.682;2024-01-30T10:11:49;12.5;70.0
78448;SHT31;67742;51.972;5.682;2024-01-30T10:14:19;12.6;70.0
78448;SHT31;67742;51.972;5.682;2024-01-30T10:16:48;12.6;70.0
78448;SHT31;67742;51.972;5.682;2024-01-30T10:19:17;12.6;70.0
78448;SHT31;67742;51.972;5.682;2024-01-30T10:21:46;12.7;69.9
78448;SHT31;67742;51.972;5.682;2024-01-30T10:24:15;12.7;70.0
78448;SHT31;67742;51.972;5.682;2024-01-30T10:26:45;12.7;69.7
78448;SHT31;67742;51.972;5.682;2024-01-30T10:29:13;12.7;69.7
78448;SHT31;67742;51.972;5.682;2024-01-30T10:31:42;12.8;69.6
78448;SHT31;67742;51.972;5.682;2024-01-30T10:34:10;12.8;69.6
78448;SHT31;67742;51.972;5.682;2024-01-30T10:36:40;12.8;69.5
78448;SHT31;67742;51.972;5.682;2024-01-30T10:39:09;12.9;69.3
78448;SHT31;67742;51.972;5.682;2024-01-30T10:41:45;12.9;69.2
78448;SHT31;67742;51.972;5.682;2024-01-30T10:44:19;12.9;69.1
78448;SHT31;67742;51.972;5.682;2024-01-30T10:47:00;12.9;68.9
78448;SHT31;67742;51.972;5.682;2024-01-30T10:49:30;12.9;68.7
78448;SHT31;67742;51.972;5.682;2024-01-30T10:51:59;13.0;68.9
78448;SHT31;67742;51.972;5.682;2024-01-30T10:54:29;13.0;68.8
78448;SHT31;67742;51.972;5.682;2024-01-30T10:57:01;13.0;68.9
78448;SHT31;67742;51.972;5.682;2024-01-30T10:59:32;13.1;69.0
78448;SHT31;67742;51.972;5.682;2024-01-30T11:02:02;13.1;68.9
78448;SHT31;67742;51.972;5.682;2024-01-30T11:04:38;13.1;68.9
78448;SHT31;67742;51.972;5.682;2024-01-30T11:07:16;13.2;68.9
78448;SHT31;67742;51.972;5.682;2024-01-30T11:09:50;13.2;68.9
78448;SHT31;67742;51.972;5.682;2024-01-30T11:12:24;13.3;68.7
78448;SHT31;67742;51.972;5.682;2024-01-30T11:15:03;13.3;68.6
78448;SHT31;67742;51.972;5.682;2024-01-30T11:17:50;13.4;68.5
78448;SHT31;67742;51.972;5.682;2024-01-30T11:20:23;13.4;68.3
78448;SHT31;67742;51.972;5.682;2024-01-30T11:22:56;13.4;68.3
78448;SHT31;67742;51.972;5.682;2024-01-30T11:25:25;13.5;68.3
78448;SHT31;67742;51.972;5.682;2024-01-30T11:27:55;13.5;68.1
78448;SHT31;67742;51.972;5.682;2024-01-30T11:30:25;13.5;67.9
78448;SHT31;67742;51.972;5.682;2024-01-30T11:33:05;13.5;68.0
78448;SHT31;67742;51.972;5.682;2024-01-30T11:35:36;13.5;67.9
78448;SHT31;67742;51.972;5.682;2024-01-30T11:38:07;13.6;67.8
78448;SHT31;67742;51.972;5.682;2024-01-30T11:40:37;13.6;67.4
78448;SHT31;67742;51.972;5.682;2024-01-30T11:43:07;13.6;67.4
78448;SHT31;67742;51.972;5.682;2024-01-30T11:45:37;13.6;66.9
78448;SHT31;67742;51.972;5.682;2024-01-30T11:48:07;13.6;66.8
78448;SHT31;67742;51.972;5.682;2024-01-30T11:50:38;13.7;66.2
78448;SHT31;67742;51.972;5.682;2024-01-30T11:53:08;13.7;66.0
78448;SHT31;67742;51.972;5.682;2024-01-30T11:55:36;13.7;65.9
78448;SHT31;67742;51.972;5.682;2024-01-30T11:58:05;13.7;65.7
78448;SHT31;67742;51.972;5.682;2024-01-30T12:00:34;13.7;65.1
78448;SHT31;67742;51.972;5.682;2024-01-30T12:03:03;13.7;64.8
78448;SHT31;67742;51.972;5.682;2024-01-30T12:05:33;13.7;64.9
78448;SHT31;67742;51.972;5.682;2024-01-30T12:08:03;13.7;64.9
78448;SHT31;67742;51.972;5.682;2024-01-30T12:10:32;13.7;65.1
78448;SHT31;67742;51.972;5.682;2024-01-30T12:13:01;13.8;65.0
78448;SHT31;67742;51.972;5.682;2024-01-30T12:15:31;13.8;64.0
78448;SHT31;67742;51.972;5.682;2024-01-30T12:18:07;13.7;63.6
78448;SHT31;67742;51.972;5.682;2024-01-30T12:20:36;13.7;63.2
78448;SHT31;67742;51.972;5.682;2024-01-30T12:23:04;13.7;63.2
78448;SHT31;67742;51.972;5.682;2024-01-30T12:25:33;13.6;63.1
78448;SHT31;67742;51.972;5.682;2024-01-30T12:28:05;13.6;62.7
78448;SHT31;67742;51.972;5.682;2024-01-30T12:30:35;13.6;62.2
78448;SHT31;67742;51.972;5.682;2024-01-30T12:33:06;13.5;62.0
78448;SHT31;67742;51.972;5.682;2024-01-30T12:35:36;13.4;62.2
78448;SHT31;67742;51.972;5.682;2024-01-30T12:38:07;13.4;62.0
78448;SHT31;67742;51.972;5.682;2024-01-30T12:40:35;13.3;62.2
78448;SHT31;67742;51.972;5.682;2024-01-30T12:43:04;13.2;62.5
78448;SHT31;67742;51.972;5.682;2024-01-30T12:45:33;13.2;62.5
78448;SHT31;67742;51.972;5.682;2024-01-30T12:48:01;13.2;62.6
78448;SHT31;67742;51.972;5.682;2024-01-30T12:50:30;13.1;62.8
78448;SHT31;67742;51.972;5.682;2024-01-30T12:52:59;13.1;62.5
78448;SHT31;67742;51.972;5.682;2024-01-30T12:55:27;13.1;62.9
78448;SHT31;67742;51.972;5.682;2024-01-30T12:57:56;13.1;63.0
78448;SHT31;67742;51.972;5.682;2024-01-30T13:00:25;13.1;62.8
78448;SHT31;67742;51.972;5.682;2024-01-30T13:02:54;13.1;62.7
78448;SHT31;67742;51.972;5.682;2024-01-30T13:05:23;13.1;62.4
78448;SHT31;67742;51.972;5.682;2024-01-30T13:07:52;13.1;62.6
78448;SHT31;67742;51.972;5.682;2024-01-30T13:10:23;13.1;62.5
78448;SHT31;67742;51.972;5.682;2024-01-30T13:12:52;13.1;62.9
78448;SHT31;67742;51.972;5.682;2024-01-30T13:15:20;13.1;62.7
78448;SHT31;67742;51.972;5.682;2024-01-30T13:17:49;13.1;62.5
78448;SHT31;67742;51.972;5.682;2024-01-30T13:20:22;13.1;62.2
78448;SHT31;67742;51.972;5.682;2024-01-30T13:22:51;13.1;62.0
78448;SHT31;67742;51.972;5.682;2024-01-30T13:25:20;13.1;62.0
78448;SHT31;67742;51.972;5.682;2024-01-30T13:27:48;13.1;62.1
78448;SHT31;67742;51.972;5.682;2024-01-30T13:30:16;13.0;62.0
78448;SHT31;67742;51.972;5.682;2024-01-30T13:32:46;12.9;62.2
78448;SHT31;67742;51.972;5.682;2024-01-30T13:35:14;12.9;62.0
78448;SHT31;67742;51.972;5.682;2024-01-30T13:37:43;12.8;62.2
78448;SHT31;67742;51.972;5.682;2024-01-30T13:40:14;12.7;62.2
78448;SHT31;67742;51.972;5.682;2024-01-30T13:42:43;12.6;62.8
78448;SHT31;67742;51.972;5.682;2024-01-30T13:45:11;12.6;62.8
78448;SHT31;67742;51.972;5.682;2024-01-30T13:47:40;12.5;62.6
78448;SHT31;67742;51.972;5.682;2024-01-30T13:50:09;12.5;62.6
78448;SHT31;67742;51.972;5.682;2024-01-30T13:52:41;12.5;63.0
78448;SHT31;67742;51.972;5.682;2024-01-30T13:55:10;12.4;63.0
78448;SHT31;67742;51.972;5.682;2024-01-30T13:57:39;12.4;63.0
78448;SHT31;67742;51.972;5.682;2024-01-30T14:00:12;12.4;63.3
78448;SHT31;67742;51.972;5.682;2024-01-30T14:02:43;12.4;63.1
78448;SHT31;67742;51.972;5.682;2024-01-30T14:05:11;12.4;63.3
78448;SHT31;67742;51.972;5.682;2024-01-30T14:07:41;12.4;63.3
78448;SHT31;67742;51.972;5.682;2024-01-30T14:10:12;12.3;63.6
78448;SHT31;67742;51.972;5.682;2024-01-30T14:12:42;12.4;63.3
78448;SHT31;67742;51.972;5.682;2024-01-30T14:15:12;12.4;63.3
78448;SHT31;67742;51.972;5.682;2024-01-30T14:17:43;12.4;63.0
78448;SHT31;67742;51.972;5.682;2024-01-30T14:20:15;12.4;63.5
78448;SHT31;67742;51.972;5.682;2024-01-30T14:22:44;12.4;63.7
78448;SHT31;67742;51.972;5.682;2024-01-30T14:25:13;12.4;63.8
78448;SHT31;67742;51.972;5.682;2024-01-30T14:27:43;12.4;63.7
78448;SHT31;67742;51.972;5.682;2024-01-30T14:30:12;12.4;63.5
78448;SHT31;67742;51.972;5.682;2024-01-30T14:32:40;12.4;63.5
78448;SHT31;67742;51.972;5.682;2024-01-30T14:35:12;12.4;63.5
78448;SHT31;67742;51.972;5.682;2024-01-30T14:37:41;12.4;63.4
78448;SHT31;67742;51.972;5.682;2024-01-30T14:40:10;12.4;63.5
78448;SHT31;67742;51.972;5.682;2024-01-30T14:42:40;12.4;63.7
78448;SHT31;67742;51.972;5.682;2024-01-30T14:45:09;12.4;64.1
78448;SHT31;67742;51.972;5.682;2024-01-30T14:47:38;12.3;64.5
78448;SHT31;67742;51.972;5.682;2024-01-30T14:50:08;12.3;64.7
78448;SHT31;67742;51.972;5.682;2024-01-30T14:52:36;12.3;64.7
78448;SHT31;67742;51.972;5.682;2024-01-30T14:55:07;12.3;64.9
78448;SHT31;67742;51.972;5.682;2024-01-30T14:57:37;12.2;64.9
78448;SHT31;67742;51.972;5.682;2024-01-30T15:00:13;12.2;65.0
78448;SHT31;67742;51.972;5.682;2024-01-30T15:02:42;12.2;65.0
78448;SHT31;67742;51.972;5.682;2024-01-30T15:05:12;12.1;65.3
78448;SHT31;67742;51.972;5.682;2024-01-30T15:07:41;12.1;65.0
78448;SHT31;67742;51.972;5.682;2024-01-30T15:10:10;12.1;65.2
78448;SHT31;67742;51.972;5.682;2024-01-30T15:12:38;12.1;65.3
78448;SHT31;67742;51.972;5.682;2024-01-30T15:15:08;12.0;65.3
78448;SHT31;67742;51.972;5.682;2024-01-30T15:17:37;12.0;65.5
78448;SHT31;67742;51.972;5.682;2024-01-30T15:20:07;12.0;65.6
78448;SHT31;67742;51.972;5.682;2024-01-30T15:22:37;12.0;65.5
78448;SHT31;67742;51.972;5.682;2024-01-30T15:25:07;11.9;65.6
78448;SHT31;67742;51.972;5.682;2024-01-30T15:27:36;11.9;65.8
78448;SHT31;67742;51.972;5.682;2024-01-30T15:30:06;11.9;65.9
78448;SHT31;67742;51.972;5.682;2024-01-30T15:32:35;11.8;66.3
78448;SHT31;67742;51.972;5.682;2024-01-30T15:35:04;11.8;66.5
78448;SHT31;67742;51.972;5.682;2024-01-30T15:37:33;11.8;66.8
78448;SHT31;67742;51.972;5.682;2024-01-30T15:40:02;11.8;67.1
78448;SHT31;67742;51.972;5.682;2024-01-30T15:42:32;11.8;67.6
78448;SHT31;67742;51.972;5.682;2024-01-30T15:45:01;11.7;68.1
78448;SHT31;67742;51.972;5.682;2024-01-30T15:47:29;11.7;68.5
78448;SHT31;67742;51.972;5.682;2024-01-30T15:49:58;11.7;68.8
78448;SHT31;67742;51.972;5.682;2024-01-30T15:52:27;11.7;69.0
78448;SHT31;67742;51.972;5.682;2024-01-30T15:54:55;11.7;69.1
78448;SHT31;67742;51.972;5.682;2024-01-30T15:57:24;11.7;69.2
78448;SHT31;67742;51.972;5.682;2024-01-30T15:59:52;11.7;69.1
78448;SHT31;67742;51.972;5.682;2024-01-30T16:02:21;11.7;69.2
78448;SHT31;67742;51.972;5.682;2024-01-30T16:04:49;11.6;69.2
78448;SHT31;67742;51.972;5.682;2024-01-30T16:07:18;11.6;69.2
78448;SHT31;67742;51.972;5.682;2024-01-30T16:09:46;11.6;69.3
78448;SHT31;67742;51.972;5.682;2024-01-30T16:12:14;11.5;69.4
78448;SHT31;67742;51.972;5.682;2024-01-30T16:14:43;11.5;69.5
78448;SHT31;67742;51.972;5.682;2024-01-30T16:17:11;11.5;69.6